Etusivu
METAR-TAF:

METAR-TAF

Lentoasemat :

New Braunfels Municipal Airport

New Braunfels, Texas, Yhdysvallat

Leveyspiiri: 29-42-31N, Pituuspiiri: 098-02-43W, korkeus merenpinnasta: 197 m

Tämänhetkinen sää

Tämä raportti tehtiin 52 minuuttia sitten, kello 21.51 UTC
Tuuli 20 kn luoteesta puuskistuen 27 kn:hen
Lämpötila 22°C
Kosteus 33%
Ilmanpaine 1010 hPa
Näkyvyys: 16.1 km
selkeää

METAR: KBAZ 282151Z 32020G27KT 10SM CLR 22/05 A2983 RMK AO2 PK WND 29029/2139 SLP095 T02170050

Aika: 16:43 (22:43 UTC)


TAF: puuttuu

Säähavainnot ja -ennusteet yli 4000 lentoasemalta (METAR- ja TAF-raportit).

Käytössä olevat sääasemat on merkitty karttaan keltaisilla ja punaisilla pisteillä.

Aseta hiiri pisteen päälle nähdäksesi sääaseman nimen.

Klikkaa sitten nähdäksesi säähavainnot ja -ennusteet.

Kartan vaihtaminen: klikkaa mustalla rastilla varustettuja vihreitä pisteitä, niin voit zoomata sisään; viivalla varustettua vihreää pistettä, niin voit zoomata ulos tai vihreitä nuolia, niin pääset viereisille kartoille.


METAR-TAF: